createdAt,value
2023-05-25T00:01:01.812Z,12.83
2023-05-25T00:02:24.977Z,12.82
2023-05-25T00:03:46.991Z,12.81
2023-05-25T00:05:09.197Z,12.81
2023-05-25T00:06:31.574Z,12.79
2023-05-25T00:07:52.613Z,12.78
2023-05-25T00:09:14.702Z,12.76
2023-05-25T00:10:36.989Z,12.75
2023-05-25T00:12:03.019Z,12.77
2023-05-25T00:13:26.240Z,12.75
2023-05-25T00:14:48.152Z,12.73
2023-05-25T00:16:09.213Z,12.73
2023-05-25T00:17:58.761Z,12.71
2023-05-25T00:19:48.904Z,12.71
2023-05-25T00:24:41.061Z,12.67
2023-05-25T00:26:26.189Z,12.67
2023-05-25T00:28:20.910Z,12.62
2023-05-25T00:30:01.574Z,12.62
2023-05-25T00:31:56.143Z,12.61
2023-05-25T00:33:22.810Z,12.60
2023-05-25T00:34:44.289Z,12.58
2023-05-25T00:36:06.458Z,12.57
2023-05-25T00:37:27.417Z,12.56
2023-05-25T00:38:49.333Z,12.55
2023-05-25T00:40:16.587Z,12.53
2023-05-25T00:41:41.673Z,12.53
2023-05-25T00:43:04.195Z,12.50
2023-05-25T00:44:25.326Z,12.49
2023-05-25T00:45:49.447Z,12.47
2023-05-25T00:47:12.089Z,12.45
2023-05-25T00:48:40.055Z,12.43
2023-05-25T00:50:11.493Z,12.42
2023-05-25T00:55:03.642Z,12.39
2023-05-25T00:56:33.702Z,12.36
2023-05-25T00:58:01.485Z,12.34
2023-05-25T00:59:28.964Z,12.34
2023-05-25T01:00:53.612Z,12.32
2023-05-25T01:02:17.936Z,12.32
2023-05-25T01:03:40.615Z,12.31
2023-05-25T01:05:04.027Z,12.29
2023-05-25T01:06:27.328Z,12.28
2023-05-25T01:07:52.989Z,12.27
2023-05-25T01:09:16.543Z,12.25
2023-05-25T01:10:43.794Z,12.25
2023-05-25T01:12:09.153Z,12.24
2023-05-25T01:13:31.362Z,12.22
2023-05-25T01:14:53.608Z,12.21
2023-05-25T01:16:17.006Z,12.21
2023-05-25T01:17:39.169Z,12.19
2023-05-25T01:19:03.059Z,12.19
2023-05-25T01:20:25.037Z,12.18
2023-05-25T01:21:54.067Z,12.16
2023-05-25T01:23:18.136Z,12.16
2023-05-25T01:24:41.152Z,12.14
2023-05-25T01:26:07.394Z,12.13
2023-05-25T01:27:33.245Z,12.13
2023-05-25T01:28:56.097Z,12.11
2023-05-25T01:30:18.590Z,12.10
2023-05-25T01:31:39.964Z,12.09
2023-05-25T01:33:19.268Z,12.08
2023-05-25T01:34:45.382Z,12.07
2023-05-25T01:36:29.653Z,12.06
2023-05-25T01:45:59.078Z,11.97
2023-05-25T01:47:36.322Z,11.95
2023-05-25T01:49:06.447Z,11.94
2023-05-25T01:50:41.873Z,11.92
2023-05-25T01:52:14.416Z,11.91
2023-05-25T01:54:17.331Z,11.91
2023-05-25T01:55:49.366Z,11.88
2023-05-25T01:57:13.971Z,11.87
2023-05-25T01:58:41.827Z,11.87
2023-05-25T02:00:05.028Z,11.85
2023-05-25T02:01:36.733Z,11.84
2023-05-25T02:02:58.455Z,11.83
2023-05-25T02:04:22.424Z,11.82
2023-05-25T02:05:45.364Z,11.82
2023-05-25T02:07:07.760Z,11.80
2023-05-25T02:08:29.875Z,11.80
2023-05-25T02:09:54.832Z,11.79
2023-05-25T02:11:15.530Z,11.76
2023-05-25T02:12:38.703Z,11.77
2023-05-25T02:13:59.962Z,11.75
2023-05-25T02:15:25.015Z,11.75
2023-05-25T02:16:49.169Z,11.73
2023-05-25T02:18:13.904Z,11.73
2023-05-25T02:19:35.653Z,11.72
2023-05-25T02:21:01.742Z,11.70
2023-05-25T02:22:23.053Z,11.70
2023-05-25T02:23:44.926Z,11.69
2023-05-25T02:25:06.365Z,11.68
2023-05-25T02:26:32.439Z,11.68
2023-05-25T02:27:55.196Z,11.66
2023-05-25T02:29:17.130Z,11.66
2023-05-25T02:30:38.273Z,11.64
2023-05-25T02:32:00.276Z,11.62
2023-05-25T02:33:29.843Z,11.62
2023-05-25T02:34:53.492Z,11.61
2023-05-25T02:36:17.491Z,11.60
2023-05-25T02:37:39.865Z,11.60
2023-05-25T02:39:01.302Z,11.59
2023-05-25T02:40:24.199Z,11.59
2023-05-25T02:41:45.056Z,11.58
2023-05-25T02:43:08.243Z,11.57
2023-05-25T02:44:30.084Z,11.57
2023-05-25T02:45:51.636Z,11.57
2023-05-25T02:47:48.322Z,11.55
2023-05-25T02:49:16.037Z,11.55
2023-05-25T02:50:37.353Z,11.54
2023-05-25T02:52:03.655Z,11.54
2023-05-25T02:53:25.617Z,11.53
2023-05-25T02:54:48.741Z,11.53
2023-05-25T02:56:16.619Z,11.53
2023-05-25T02:57:38.034Z,11.53
2023-05-25T02:59:05.753Z,11.54
2023-05-25T03:00:27.571Z,11.55
2023-05-25T03:01:49.604Z,11.56
2023-05-25T03:03:10.300Z,11.56
2023-05-25T03:04:34.570Z,11.57
2023-05-25T03:05:57.928Z,11.58
2023-05-25T03:07:19.892Z,11.59
2023-05-25T03:08:42.966Z,11.60
2023-05-25T03:10:05.056Z,11.63
2023-05-25T03:11:27.558Z,11.68
2023-05-25T03:12:51.357Z,11.71
2023-05-25T03:14:14.721Z,11.74
2023-05-25T03:16:07.313Z,11.77
2023-05-25T03:17:34.957Z,11.83
2023-05-25T03:18:56.953Z,11.86
2023-05-25T03:20:17.776Z,11.91
2023-05-25T03:21:43.123Z,11.97
2023-05-25T03:23:03.975Z,12.00
2023-05-25T03:24:26.933Z,12.06
2023-05-25T03:25:52.353Z,12.12
2023-05-25T03:27:13.378Z,12.18
2023-05-25T03:28:38.746Z,12.24
2023-05-25T03:30:01.703Z,12.29
2023-05-25T03:31:24.943Z,12.35
2023-05-25T03:32:46.334Z,12.39
2023-05-25T03:34:10.352Z,12.43
2023-05-25T03:35:32.589Z,12.48
2023-05-25T03:36:55.290Z,12.53
2023-05-25T03:38:16.286Z,12.57
2023-05-25T03:39:38.651Z,12.59
2023-05-25T03:41:03.504Z,12.64
2023-05-25T03:42:24.557Z,12.67
2023-05-25T03:43:46.175Z,12.70
2023-05-25T03:45:10.443Z,12.73
2023-05-25T03:46:33.071Z,12.75
2023-05-25T03:47:55.350Z,12.79
2023-05-25T03:49:16.429Z,12.82
2023-05-25T03:50:40.404Z,12.85
2023-05-25T03:52:01.676Z,12.89
2023-05-25T03:53:23.763Z,12.93
2023-05-25T03:54:44.729Z,12.97
2023-05-25T03:56:07.022Z,13.02
2023-05-25T03:57:31.229Z,13.06
2023-05-25T03:58:54.275Z,13.12
2023-05-25T04:00:23.717Z,13.17
2023-05-25T04:01:44.785Z,13.20
2023-05-25T04:03:07.372Z,13.25
2023-05-25T04:04:30.535Z,13.30
2023-05-25T04:05:53.796Z,13.36
2023-05-25T04:07:15.091Z,13.42
2023-05-25T04:08:42.165Z,13.47
2023-05-25T04:10:03.372Z,13.52
2023-05-25T04:11:26.151Z,13.56
2023-05-25T04:12:48.373Z,13.59
2023-05-25T04:14:11.332Z,13.61
2023-05-25T04:15:37.966Z,13.60
2023-05-25T04:17:08.123Z,13.62
2023-05-25T04:18:29.168Z,13.62
2023-05-25T04:19:51.013Z,13.61
2023-05-25T04:21:19.354Z,13.63
2023-05-25T04:22:46.512Z,13.63
2023-05-25T04:24:13.163Z,13.66
2023-05-25T04:25:42.530Z,13.69
2023-05-25T04:27:04.515Z,13.71
2023-05-25T04:28:28.329Z,13.74
2023-05-25T04:30:07.252Z,13.75
2023-05-25T04:31:45.950Z,13.78
2023-05-25T04:33:32.222Z,13.80
2023-05-25T04:34:59.433Z,13.81
2023-05-25T04:37:17.319Z,13.82
2023-05-25T04:38:52.359Z,13.82
2023-05-25T04:40:31.404Z,13.83
2023-05-25T04:41:55.203Z,13.83
2023-05-25T04:43:21.693Z,13.84
2023-05-25T04:44:44.169Z,13.85
2023-05-25T04:46:05.506Z,13.88
2023-05-25T04:47:45.475Z,13.88
2023-05-25T04:49:08.697Z,13.91
2023-05-25T04:50:31.630Z,13.92
2023-05-25T04:51:56.990Z,13.94
2023-05-25T04:53:20.621Z,13.95
2023-05-25T04:56:29.954Z,13.98
2023-05-25T04:57:53.536Z,14.00
2023-05-25T04:59:16.831Z,14.02
2023-05-25T05:00:40.465Z,14.04
2023-05-25T05:02:03.792Z,14.09
2023-05-25T05:03:27.425Z,14.10
2023-05-25T05:04:52.656Z,14.14
2023-05-25T05:06:15.386Z,14.19
2023-05-25T05:07:46.110Z,14.22
2023-05-25T05:12:17.481Z,14.30
2023-05-25T05:14:28.073Z,14.34
2023-05-25T05:17:49.213Z,14.45
2023-05-25T05:19:13.039Z,14.47
2023-05-25T05:20:35.287Z,14.50
2023-05-25T05:22:08.992Z,14.55
2023-05-25T05:26:16.116Z,14.67
2023-05-25T05:27:37.341Z,14.70
2023-05-25T05:29:07.709Z,14.71
2023-05-25T05:30:31.912Z,14.73
2023-05-25T05:31:55.801Z,14.75
2023-05-25T05:33:18.085Z,14.77
2023-05-25T05:34:46.450Z,14.79
2023-05-25T05:36:23.717Z,14.83
2023-05-25T05:37:47.129Z,14.89
2023-05-25T05:39:09.286Z,14.93
2023-05-25T05:40:31.183Z,14.98
2023-05-25T05:41:52.367Z,15.03
2023-05-25T05:43:15.728Z,15.05
2023-05-25T05:44:37.742Z,15.13
2023-05-25T05:45:59.662Z,15.18
2023-05-25T05:47:24.493Z,15.26
2023-05-25T05:48:49.723Z,15.32
2023-05-25T05:50:12.364Z,15.34
2023-05-25T05:51:36.343Z,15.37
2023-05-25T05:52:58.229Z,15.40
2023-05-25T05:54:20.767Z,15.42
2023-05-25T05:55:43.441Z,15.47
2023-05-25T05:57:05.343Z,15.51
2023-05-25T05:58:28.095Z,15.55
2023-05-25T05:59:51.536Z,15.58
2023-05-25T06:01:14.345Z,15.63
2023-05-25T06:02:37.986Z,15.66
2023-05-25T06:04:01.530Z,15.73
2023-05-25T06:05:25.048Z,15.80
2023-05-25T06:06:47.209Z,15.85
2023-05-25T06:08:10.390Z,15.90
2023-05-25T06:09:32.523Z,15.99
2023-05-25T06:10:56.176Z,16.06
2023-05-25T06:12:19.558Z,16.12
2023-05-25T06:13:41.497Z,16.14
2023-05-25T06:15:03.712Z,16.22
2023-05-25T06:16:26.176Z,16.29
2023-05-25T06:17:48.538Z,16.37
2023-05-25T06:19:10.521Z,16.47
2023-05-25T06:20:33.802Z,16.56
2023-05-25T06:21:55.861Z,16.64
2023-05-25T06:23:19.903Z,16.70
2023-05-25T06:24:41.647Z,16.78
2023-05-25T06:26:07.065Z,16.85
2023-05-25T06:27:29.432Z,16.92
2023-05-25T06:28:51.569Z,16.99
2023-05-25T06:30:14.273Z,17.07
2023-05-25T06:31:36.737Z,17.13
2023-05-25T06:32:58.636Z,17.19
2023-05-25T06:34:23.024Z,17.26
2023-05-25T06:35:46.871Z,17.31
2023-05-25T06:37:08.538Z,17.37
2023-05-25T06:38:31.505Z,17.42
2023-05-25T06:39:57.566Z,17.48
2023-05-25T06:41:21.952Z,17.52
2023-05-25T06:42:44.367Z,17.58
2023-05-25T06:44:26.390Z,17.71
2023-05-25T06:45:48.714Z,17.81
2023-05-25T06:47:12.149Z,17.91
2023-05-25T06:48:42.585Z,17.99
2023-05-25T06:50:09.034Z,18.09
2023-05-25T06:51:33.183Z,18.19
2023-05-25T06:52:59.058Z,18.26
2023-05-25T06:54:22.418Z,18.36
2023-05-25T06:56:14.386Z,18.44
2023-05-25T06:57:38.520Z,18.52
2023-05-25T06:59:00.670Z,18.55
2023-05-25T07:00:21.697Z,18.60
2023-05-25T07:01:47.547Z,18.66
2023-05-25T07:03:10.096Z,18.73
2023-05-25T07:04:33.257Z,18.82
2023-05-25T07:05:55.113Z,18.89
2023-05-25T07:07:18.466Z,18.95
2023-05-25T07:08:40.472Z,18.98
2023-05-25T07:10:05.276Z,19.04
2023-05-25T07:11:30.615Z,19.10
2023-05-25T07:16:22.713Z,19.32
2023-05-25T07:17:45.349Z,19.37
2023-05-25T07:19:07.444Z,19.40
2023-05-25T07:20:32.925Z,19.42
2023-05-25T07:21:55.090Z,19.44
2023-05-25T07:23:18.454Z,19.45
2023-05-25T07:24:39.461Z,19.45
2023-05-25T07:26:03.017Z,19.47
2023-05-25T07:27:26.975Z,19.47
2023-05-25T07:28:53.568Z,19.49
2023-05-25T07:30:23.320Z,19.51
2023-05-25T07:32:34.449Z,19.50
2023-05-25T07:33:56.624Z,19.51
2023-05-25T07:35:18.354Z,19.53
2023-05-25T07:36:40.530Z,19.54
2023-05-25T07:38:02.485Z,19.58
2023-05-25T07:39:26.985Z,19.62
2023-05-25T07:40:49.321Z,19.66
2023-05-25T07:42:12.041Z,19.72
2023-05-25T07:43:33.732Z,19.78
2023-05-25T07:44:55.569Z,19.83
2023-05-25T07:46:26.052Z,19.89
2023-05-25T07:47:48.371Z,19.94
2023-05-25T07:49:13.397Z,19.99
2023-05-25T07:50:35.628Z,20.06
2023-05-25T07:52:09.531Z,20.09
2023-05-25T07:53:42.749Z,20.15
2023-05-25T07:55:22.048Z,20.21
2023-05-25T07:56:56.273Z,20.28
2023-05-25T07:58:19.108Z,20.34
2023-05-25T07:59:52.936Z,20.40
2023-05-25T08:01:26.877Z,20.44
2023-05-25T08:02:49.947Z,20.49
2023-05-25T08:05:29.327Z,20.55
2023-05-25T08:06:42.408Z,20.66
2023-05-25T08:08:47.847Z,20.75
2023-05-25T08:12:49.537Z,20.91
2023-05-25T08:19:07.176Z,21.16
2023-05-25T08:29:47.436Z,21.53
2023-05-25T08:32:13.236Z,21.59
2023-05-25T08:33:41.257Z,21.66
2023-05-25T08:35:17.968Z,21.70
2023-05-25T08:41:49.736Z,21.79
2023-05-25T08:47:57.174Z,22.02
2023-05-25T08:49:35.226Z,22.06
2023-05-25T08:51:03.451Z,22.12
2023-05-25T08:53:10.442Z,22.15
2023-05-25T08:54:58.661Z,22.20
2023-05-25T09:01:25.178Z,22.35
2023-05-25T09:03:24.887Z,22.40
2023-05-25T09:12:24.368Z,22.70
2023-05-25T09:13:50.331Z,22.77
2023-05-25T12:53:05.902Z,29.14
2023-05-25T12:54:45.828Z,28.95
2023-05-25T12:56:12.930Z,28.82
2023-05-25T12:57:54.504Z,28.71
2023-05-25T12:59:59.336Z,28.55
2023-05-25T13:01:26.326Z,28.49
2023-05-25T13:02:54.920Z,28.47
2023-05-25T13:04:16.207Z,28.46
2023-05-25T13:05:41.250Z,28.47
2023-05-25T13:07:03.722Z,28.49
2023-05-25T13:08:30.377Z,28.50
2023-05-25T13:09:52.920Z,28.49
2023-05-25T13:11:15.493Z,28.41
2023-05-25T13:12:39.823Z,28.29
2023-05-25T13:14:04.997Z,28.21
2023-05-25T13:15:27.712Z,28.10
2023-05-25T13:16:49.649Z,28.10
2023-05-25T13:18:11.694Z,28.14
2023-05-25T13:19:32.818Z,28.22
2023-05-25T13:20:57.246Z,28.28
2023-05-25T13:22:32.238Z,28.36
2023-05-25T13:23:58.449Z,28.43
2023-05-25T13:25:22.667Z,28.41
2023-05-25T13:26:47.490Z,28.37
2023-05-25T13:28:11.108Z,28.33
2023-05-25T13:29:33.295Z,28.30
2023-05-25T13:30:55.857Z,28.30
2023-05-25T13:32:18.112Z,28.32
2023-05-25T13:33:46.506Z,28.39
2023-05-25T13:35:09.075Z,28.43
2023-05-25T13:36:32.936Z,28.46
2023-05-25T13:57:28.192Z,28.22
2023-05-25T14:02:13.552Z,27.56
2023-05-25T14:10:52.748Z,26.77
2023-05-25T14:32:36.568Z,25.40
2023-05-25T14:34:02.390Z,25.36
2023-05-25T14:35:36.854Z,25.34
2023-05-25T14:37:07.084Z,25.31
2023-05-25T14:41:39.576Z,25.05
2023-05-25T14:45:33.948Z,24.74
2023-05-25T14:47:44.739Z,24.62
2023-05-25T14:49:21.894Z,24.49
2023-05-25T14:59:42.722Z,24.49
2023-05-25T15:01:12.333Z,24.56
2023-05-25T15:02:42.355Z,24.61
2023-05-25T15:04:14.021Z,24.60
2023-05-25T15:05:48.044Z,24.56
2023-05-25T15:07:30.687Z,24.55
2023-05-25T15:08:52.628Z,24.56
2023-05-25T15:12:25.845Z,24.61
2023-05-25T15:13:50.237Z,24.65
2023-05-25T15:15:15.591Z,24.68
2023-05-25T15:16:38.603Z,24.71
2023-05-25T15:18:02.694Z,24.74
2023-05-25T15:19:39.141Z,24.75
2023-05-25T15:21:59.928Z,24.79
2023-05-25T15:29:00.516Z,24.73
2023-05-25T15:33:08.371Z,24.60
2023-05-25T15:34:32.210Z,24.58
2023-05-25T15:36:01.241Z,24.57
2023-05-25T15:40:37.546Z,24.38
2023-05-25T15:45:00.318Z,24.16
2023-05-25T15:52:36.509Z,23.67
2023-05-25T15:54:03.115Z,23.54
2023-05-25T15:55:26.162Z,23.42
2023-05-25T15:59:07.805Z,23.14
2023-05-25T16:46:38.666Z,20.88
2023-05-25T16:51:22.663Z,20.83
2023-05-25T16:52:45.187Z,20.82
2023-05-25T16:54:07.591Z,20.82
2023-05-25T16:55:53.937Z,20.81
2023-05-25T16:57:19.239Z,20.79
2023-05-25T16:59:11.268Z,20.78
2023-05-25T17:01:25.296Z,20.76
2023-05-25T17:02:53.449Z,20.74
2023-05-25T17:04:17.227Z,20.74
2023-05-25T17:05:39.190Z,20.74
2023-05-25T17:07:01.877Z,20.74
2023-05-25T17:08:23.719Z,20.73
2023-05-25T17:09:50.719Z,20.75
2023-05-25T17:11:15.562Z,20.76
2023-05-25T17:12:40.872Z,20.78
2023-05-25T17:14:17.254Z,20.81
2023-05-25T17:16:15.913Z,20.81
2023-05-25T17:18:10.963Z,20.80
2023-05-25T17:19:55.837Z,20.77
2023-05-25T17:21:18.070Z,20.74
2023-05-25T17:23:28.632Z,20.72
2023-05-25T17:27:35.463Z,20.58
2023-05-25T17:32:01.226Z,20.45
2023-05-25T17:33:38.949Z,20.38
2023-05-25T17:35:07.134Z,20.32
2023-05-25T17:36:31.138Z,20.27
2023-05-25T17:37:53.253Z,20.23
2023-05-25T17:39:17.678Z,20.19
2023-05-25T17:40:39.302Z,20.15
2023-05-25T17:42:01.679Z,20.11
2023-05-25T17:43:35.102Z,20.07
2023-05-25T17:45:18.746Z,20.03
2023-05-25T17:46:40.128Z,19.98
2023-05-25T17:48:02.666Z,19.94
2023-05-25T17:49:30.969Z,19.91
2023-05-25T17:50:58.205Z,19.88
2023-05-25T17:52:39.194Z,19.87
2023-05-25T17:54:09.403Z,19.86
2023-05-25T17:57:34.846Z,19.86
2023-05-25T17:59:02.084Z,19.87
2023-05-25T18:00:30.392Z,19.86
2023-05-25T18:02:32.956Z,19.85
2023-05-25T18:04:08.152Z,19.85
2023-05-25T18:05:32.003Z,19.84
2023-05-25T18:07:21.454Z,19.82
2023-05-25T18:09:17.334Z,19.79
2023-05-25T18:20:09.180Z,19.54
2023-05-25T18:24:45.268Z,19.39
2023-05-25T18:26:46.009Z,19.31
2023-05-25T18:28:44.870Z,19.26
2023-05-25T18:33:46.458Z,19.13
2023-05-25T19:44:54.848Z,17.39
2023-05-25T19:46:27.617Z,17.35
2023-05-25T19:50:55.986Z,17.29
2023-05-25T19:52:37.627Z,17.27
2023-05-25T19:56:48.216Z,17.18
2023-05-25T19:58:14.327Z,17.15
2023-05-25T19:59:41.012Z,17.14
2023-05-25T20:01:24.321Z,17.12
2023-05-25T20:03:10.042Z,17.09
2023-05-25T20:04:35.172Z,17.06
2023-05-25T20:05:59.365Z,17.03
2023-05-25T20:07:26.725Z,17.02
2023-05-25T20:08:58.240Z,17.00
2023-05-25T20:10:29.010Z,16.98
2023-05-25T20:14:47.587Z,16.92
2023-05-25T20:16:10.789Z,16.90
2023-05-25T20:17:32.958Z,16.88
2023-05-25T20:19:07.803Z,16.86
2023-05-25T20:20:34.580Z,16.84
2023-05-25T20:21:56.980Z,16.82
2023-05-25T20:23:23.377Z,16.80
2023-05-25T20:25:26.827Z,16.78
2023-05-25T20:27:10.184Z,16.76
2023-05-25T20:31:39.163Z,16.69
2023-05-25T20:33:09.864Z,16.67
2023-05-25T20:37:23.015Z,16.61
2023-05-25T20:39:13.518Z,16.60
2023-05-25T20:43:10.323Z,16.54
2023-05-25T20:44:59.516Z,16.52
2023-05-25T20:46:23.455Z,16.49
2023-05-25T20:48:03.062Z,16.48
2023-05-25T20:49:28.468Z,16.46
2023-05-25T20:51:16.318Z,16.45
2023-05-25T20:52:41.837Z,16.44
2023-05-25T20:54:13.853Z,16.41
2023-05-25T21:07:04.477Z,16.28
2023-05-25T21:08:33.600Z,16.27
2023-05-25T21:10:01.215Z,16.26
2023-05-25T21:11:23.642Z,16.25
2023-05-25T21:12:49.137Z,16.24
2023-05-25T21:14:11.436Z,16.20
2023-05-25T21:15:33.450Z,16.21
2023-05-25T21:16:55.450Z,16.21
2023-05-25T21:18:20.787Z,16.20
2023-05-25T21:19:49.410Z,16.18
2023-05-25T21:21:15.813Z,16.18
2023-05-25T21:23:20.782Z,16.17
2023-05-25T21:24:48.133Z,16.15
2023-05-25T21:26:09.052Z,16.13
2023-05-25T21:27:31.261Z,16.14
2023-05-25T21:29:01.264Z,16.11
2023-05-25T21:30:22.705Z,16.11
2023-05-25T21:31:57.763Z,16.10
2023-05-25T21:33:20.080Z,16.10
2023-05-25T21:35:49.214Z,16.09
2023-05-25T21:37:26.373Z,16.06
2023-05-25T21:38:51.392Z,16.04
2023-05-25T21:40:17.275Z,16.03
2023-05-25T21:41:43.275Z,16.03
2023-05-25T21:43:09.259Z,16.02
2023-05-25T21:45:05.680Z,16.00
2023-05-25T21:46:30.963Z,15.99
2023-05-25T21:47:56.266Z,16.00
2023-05-25T21:49:17.884Z,15.99
2023-05-25T21:50:41.968Z,15.98
2023-05-25T21:52:04.145Z,15.98
2023-05-25T21:53:26.937Z,15.99
2023-05-25T21:54:49.077Z,15.98
2023-05-25T21:56:11.691Z,15.98
2023-05-25T21:57:36.987Z,15.98
2023-05-25T21:58:58.053Z,15.96
2023-05-25T22:00:20.045Z,15.95
2023-05-25T22:04:31.002Z,15.93
2023-05-25T22:05:55.225Z,15.92
2023-05-25T22:07:16.569Z,15.92
2023-05-25T22:08:49.080Z,15.92
2023-05-25T22:10:31.905Z,15.90
2023-05-25T22:12:40.875Z,15.91
2023-05-25T22:14:04.826Z,15.89
2023-05-25T22:15:27.183Z,15.88
2023-05-25T22:16:50.802Z,15.88
2023-05-25T22:18:13.125Z,15.88
2023-05-25T22:19:40.860Z,15.89
2023-05-25T22:21:10.187Z,15.89
2023-05-25T22:22:36.838Z,15.88
2023-05-25T22:24:01.954Z,15.88
2023-05-25T22:25:24.527Z,15.88
2023-05-25T22:26:47.713Z,15.88
2023-05-25T22:28:10.056Z,15.88
2023-05-25T22:29:38.182Z,15.88
2023-05-25T22:31:00.208Z,15.88
2023-05-25T22:32:29.218Z,15.88
2023-05-25T22:33:54.278Z,15.86
2023-05-25T22:35:24.952Z,15.86
2023-05-25T22:36:49.273Z,15.85
2023-05-25T22:38:14.107Z,15.84
2023-05-25T22:39:35.340Z,15.84
2023-05-25T22:41:36.784Z,15.83
2023-05-25T22:42:58.897Z,15.83
2023-05-25T22:44:20.879Z,15.83
2023-05-25T22:45:45.347Z,15.82
2023-05-25T22:47:08.332Z,15.82
2023-05-25T22:48:32.569Z,15.80
2023-05-25T22:50:57.763Z,15.80
2023-05-25T22:52:54.898Z,15.79
2023-05-25T23:05:32.191Z,15.66
2023-05-25T23:06:56.362Z,15.63
2023-05-25T23:08:22.690Z,15.62
2023-05-25T23:09:49.817Z,15.60
2023-05-25T23:11:13.631Z,15.59
2023-05-25T23:12:38.328Z,15.56
2023-05-25T23:14:00.839Z,15.54
2023-05-25T23:15:29.421Z,15.51
2023-05-25T23:16:50.349Z,15.50
2023-05-25T23:18:12.170Z,15.48
2023-05-25T23:19:40.856Z,15.46
2023-05-25T23:21:03.094Z,15.44
2023-05-25T23:22:25.541Z,15.42
2023-05-25T23:23:46.798Z,15.41
2023-05-25T23:25:09.185Z,15.39
2023-05-25T23:26:30.340Z,15.37
2023-05-25T23:27:52.084Z,15.35
2023-05-25T23:29:12.860Z,15.34
2023-05-25T23:30:36.530Z,15.33
2023-05-25T23:32:01.692Z,15.31
2023-05-25T23:33:23.803Z,15.28
2023-05-25T23:34:46.363Z,15.27
2023-05-25T23:36:08.768Z,15.25
2023-05-25T23:37:30.570Z,15.24
2023-05-25T23:38:51.656Z,15.23
2023-05-25T23:40:13.877Z,15.22
2023-05-25T23:41:39.352Z,15.21
2023-05-25T23:43:01.390Z,15.19
2023-05-25T23:44:22.544Z,15.19
2023-05-25T23:45:44.901Z,15.17
2023-05-25T23:47:11.284Z,15.16
2023-05-25T23:48:32.999Z,15.14
2023-05-25T23:49:54.222Z,15.13
2023-05-25T23:51:17.667Z,15.12
2023-05-25T23:52:39.755Z,15.10
2023-05-25T23:54:00.404Z,15.09
2023-05-25T23:55:26.402Z,15.07
2023-05-25T23:56:51.811Z,15.06
2023-05-25T23:58:15.899Z,15.05
2023-05-25T23:59:40.751Z,15.04
